Fort McCoy, Florida
Current Conditions -  °F | °C
As of 2:50 PM on Sunday 21 Dec 2014 (Local Time) from KOCF Reporting Station
Scattered Clouds Scattered Clouds  
Wind Chill: 66°   Ceiling: Unl
Heat Index: 66°   Visibility: 8mi
Dew Point: 63°   Wind: 5mph
Humidity: 88%   Direction: 70°ENE
Pressure: 30.03"   Gusts: NA
Location:  29.36°N, 81.97°W
Report Text: KOCF 211950Z 07004KT 8SM SCT012 19/17 A3003
Loading
Personal Weather Stations






























Interactive Weather Map New forecast layout! Learn more

10-Day Weather Forecast

Advertisements
Track Severe Weather on mobile